Jersey City, New Jersey
Current Conditions -  °F | °C
As of 3:51 AM on Saturday 25 Oct 2014 (Local Time) from KNYC Reporting Station
Clear Clear  
Wind Chill: 53°   Ceiling: Unl
Heat Index: 53°   Visibility: 10mi
Dew Point: 37°   Wind: 5mph
Humidity: 55%   Direction: 300°WNW
Pressure: 29.88"   Gusts: NA
Location:  40.72°N, 74.04°W
Report Text: KNYC 250751Z AUTO 30004KT 10SM CLR 12/03 A2988 RMK AO2 SLP109 T01170028 $
Loading
Personal Weather Stations






























Interactive Weather Map
Tropical Storm Tracking
New forecast layout! Learn more

10-Day Weather Forecast

Advertisements
Track Severe Weather on mobile